createdAt,value
2023-05-02T00:00:11.525Z,14.01
2023-05-02T00:01:11.609Z,14.07
2023-05-02T00:02:11.662Z,14.15
2023-05-02T00:03:11.689Z,14.20
2023-05-02T00:04:11.859Z,14.22
2023-05-02T00:05:11.597Z,14.21
2023-05-02T00:06:11.708Z,14.24
2023-05-02T00:07:11.693Z,14.18
2023-05-02T00:08:11.736Z,14.21
2023-05-02T00:09:11.754Z,14.22
2023-05-02T00:10:11.812Z,14.26
2023-05-02T00:11:11.862Z,14.26
2023-05-02T00:12:11.896Z,14.19
2023-05-02T00:13:11.937Z,14.12
2023-05-02T00:14:12.039Z,14.06
2023-05-02T00:15:11.981Z,14.12
2023-05-02T00:16:11.930Z,14.16
2023-05-02T00:17:12.086Z,14.19
2023-05-02T00:18:12.098Z,14.19
2023-05-02T00:19:12.494Z,14.17
2023-05-02T00:20:12.664Z,14.14
2023-05-02T00:21:12.020Z,14.12
2023-05-02T00:22:12.037Z,14.13
2023-05-02T00:23:12.065Z,14.13
2023-05-02T00:24:12.089Z,14.12
2023-05-02T00:25:12.097Z,14.10
2023-05-02T00:26:12.078Z,14.06
2023-05-02T00:27:12.150Z,14.08
2023-05-02T00:28:12.144Z,14.16
2023-05-02T00:29:12.157Z,14.20
2023-05-02T00:30:12.432Z,14.24
2023-05-02T00:31:12.177Z,14.25
2023-05-02T00:32:12.175Z,14.32
2023-05-02T00:33:12.266Z,14.27
2023-05-02T00:34:12.279Z,14.24
2023-05-02T00:35:12.379Z,14.23
2023-05-02T00:36:12.425Z,14.27
2023-05-02T00:37:12.498Z,14.24
2023-05-02T00:38:12.540Z,14.24
2023-05-02T00:39:12.625Z,14.30
2023-05-02T00:40:12.671Z,14.37
2023-05-02T00:41:12.699Z,14.38
2023-05-02T00:42:12.681Z,14.34
2023-05-02T00:43:12.677Z,14.29
2023-05-02T00:44:12.705Z,14.21
2023-05-02T00:45:12.707Z,14.23
2023-05-02T00:46:12.755Z,14.14
2023-05-02T00:47:12.785Z,14.11
2023-05-02T00:48:12.835Z,14.01
2023-05-02T00:49:12.804Z,14.03
2023-05-02T00:50:12.731Z,14.09
2023-05-02T00:51:12.701Z,14.18
2023-05-02T00:52:12.759Z,14.16
2023-05-02T00:53:12.755Z,14.13
2023-05-02T00:54:12.835Z,14.14
2023-05-02T00:55:12.868Z,14.18
2023-05-02T00:56:12.889Z,14.21
2023-05-02T00:57:12.934Z,14.26
2023-05-02T00:58:12.997Z,14.32
2023-05-02T00:59:13.075Z,14.27
2023-05-02T01:00:13.111Z,14.20
2023-05-02T01:01:13.160Z,14.21
2023-05-02T01:02:13.298Z,14.14
2023-05-02T01:03:13.317Z,14.20
2023-05-02T01:04:13.413Z,14.26
2023-05-02T01:05:13.290Z,14.27
2023-05-02T01:06:13.351Z,14.27
2023-05-02T01:07:13.355Z,14.04
2023-05-02T01:08:13.385Z,14.03
2023-05-02T01:09:13.392Z,13.97
2023-05-02T01:10:13.395Z,13.99
2023-05-02T01:11:13.364Z,14.07
2023-05-02T01:12:13.435Z,13.89
2023-05-02T01:13:13.384Z,13.59
2023-05-02T01:14:13.449Z,13.64
2023-05-02T01:15:13.414Z,13.74
2023-05-02T01:16:13.520Z,13.87
2023-05-02T01:17:13.504Z,13.95
2023-05-02T01:18:13.607Z,13.98
2023-05-02T01:19:13.468Z,13.95
2023-05-02T01:20:13.508Z,13.94
2023-05-02T01:21:13.495Z,14.00
2023-05-02T01:22:13.512Z,13.98
2023-05-02T01:23:13.587Z,13.92
2023-05-02T01:24:13.628Z,13.90
2023-05-02T01:25:13.685Z,13.94
2023-05-02T01:26:13.688Z,13.98
2023-05-02T01:27:13.733Z,13.96
2023-05-02T01:28:13.767Z,13.94
2023-05-02T01:29:13.935Z,13.74
2023-05-02T01:30:13.857Z,13.49
2023-05-02T01:31:13.940Z,13.37
2023-05-02T01:32:13.864Z,13.28
2023-05-02T01:33:13.905Z,13.19
2023-05-02T01:34:13.938Z,13.15
2023-05-02T01:35:13.844Z,12.98
2023-05-02T01:36:13.865Z,12.82
2023-05-02T01:37:13.921Z,12.79
2023-05-02T01:38:13.922Z,12.93
2023-05-02T01:39:13.861Z,13.16
2023-05-02T01:40:13.890Z,13.34
2023-05-02T01:41:13.961Z,13.44
2023-05-02T01:42:14.003Z,13.58
2023-05-02T01:43:14.037Z,13.67
2023-05-02T01:44:14.098Z,13.72
2023-05-02T01:45:14.101Z,13.76
2023-05-02T01:46:14.331Z,13.81
2023-05-02T01:47:14.328Z,13.89
2023-05-02T01:48:14.313Z,13.98
2023-05-02T01:49:14.378Z,14.03
2023-05-02T01:50:14.442Z,14.07
2023-05-02T01:51:14.474Z,14.12
2023-05-02T01:52:14.832Z,14.11
2023-05-02T01:53:14.546Z,14.16
2023-05-02T01:54:14.627Z,14.19
2023-05-02T01:55:14.600Z,14.19
2023-05-02T01:56:14.692Z,14.16
2023-05-02T01:57:14.997Z,14.15
2023-05-02T01:58:14.700Z,14.12
2023-05-02T01:59:14.747Z,14.15
2023-05-02T02:00:14.798Z,14.17
2023-05-02T02:01:14.908Z,14.15
2023-05-02T02:02:14.964Z,14.19
2023-05-02T02:03:14.914Z,14.22
2023-05-02T02:04:15.058Z,14.24
2023-05-02T02:05:14.973Z,14.25
2023-05-02T02:06:14.995Z,14.27
2023-05-02T02:07:14.992Z,14.26
2023-05-02T02:08:15.062Z,14.27
2023-05-02T02:09:15.101Z,14.11
2023-05-02T02:10:15.134Z,14.03
2023-05-02T02:11:15.126Z,14.07
2023-05-02T02:12:15.177Z,14.07
2023-05-02T02:13:15.231Z,14.06
2023-05-02T02:14:15.304Z,14.09
2023-05-02T02:15:15.240Z,14.01
2023-05-02T02:16:15.287Z,13.96
2023-05-02T02:17:15.313Z,13.88
2023-05-02T02:18:15.405Z,13.91
2023-05-02T02:19:15.416Z,13.96
2023-05-02T02:20:15.398Z,13.99
2023-05-02T02:21:15.392Z,14.06
2023-05-02T02:22:15.408Z,14.13
2023-05-02T02:23:15.711Z,14.12
2023-05-02T02:24:15.459Z,14.15
2023-05-02T02:25:15.513Z,14.21
2023-05-02T02:26:15.478Z,14.05
2023-05-02T02:27:15.496Z,13.87
2023-05-02T02:28:15.545Z,13.77
2023-05-02T02:29:15.607Z,13.71
2023-05-02T02:30:15.608Z,13.62
2023-05-02T02:31:15.683Z,13.52
2023-05-02T02:32:15.767Z,13.61
2023-05-02T02:33:15.787Z,13.70
2023-05-02T02:34:15.844Z,13.71
2023-05-02T02:35:15.921Z,13.77
2023-05-02T02:36:15.961Z,13.85
2023-05-02T02:37:16.014Z,13.83
2023-05-02T02:38:16.036Z,13.79
2023-05-02T02:39:16.070Z,13.77
2023-05-02T02:40:16.123Z,13.70
2023-05-02T02:41:16.150Z,13.71
2023-05-02T02:42:16.219Z,13.79
2023-05-02T02:43:16.158Z,13.79
2023-05-02T02:44:16.159Z,13.50
2023-05-02T02:45:16.169Z,13.30
2023-05-02T02:46:16.200Z,13.38
2023-05-02T02:47:16.483Z,13.48
2023-05-02T02:48:16.293Z,13.58
2023-05-02T02:49:16.226Z,13.62
2023-05-02T02:50:16.217Z,13.65
2023-05-02T02:51:16.256Z,13.71
2023-05-02T02:52:16.223Z,13.65
2023-05-02T02:53:17.253Z,13.65
2023-05-02T02:54:26.411Z,13.72
2023-05-02T02:55:17.273Z,13.77
2023-05-02T02:56:16.249Z,13.77
2023-05-02T02:57:16.252Z,13.81
2023-05-02T02:58:16.269Z,13.86
2023-05-02T02:59:16.318Z,13.88
2023-05-02T03:00:16.241Z,13.90
2023-05-02T03:01:16.247Z,13.78
2023-05-02T03:02:16.236Z,13.62
2023-05-02T03:03:16.257Z,13.54
2023-05-02T03:04:16.219Z,13.32
2023-05-02T03:05:16.256Z,13.12
2023-05-02T03:06:16.222Z,13.04
2023-05-02T03:07:16.222Z,12.82
2023-05-02T03:08:16.173Z,12.72
2023-05-02T03:09:16.176Z,12.78
2023-05-02T03:10:16.180Z,12.73
2023-05-02T03:11:16.147Z,12.71
2023-05-02T03:12:16.166Z,12.69
2023-05-02T03:13:16.205Z,12.81
2023-05-02T03:14:16.155Z,12.88
2023-05-02T03:15:16.179Z,12.82
2023-05-02T03:16:16.141Z,12.76
2023-05-02T03:17:16.211Z,12.74
2023-05-02T03:18:16.228Z,12.63
2023-05-02T03:19:16.218Z,12.80
2023-05-02T03:20:16.245Z,12.95
2023-05-02T03:21:16.348Z,13.03
2023-05-02T03:22:16.375Z,13.09
2023-05-02T03:23:16.515Z,13.18
2023-05-02T03:24:18.907Z,13.21
2023-05-02T03:25:16.528Z,13.15
2023-05-02T03:26:16.452Z,13.27
2023-05-02T03:27:16.460Z,13.28
2023-05-02T03:28:16.479Z,13.32
2023-05-02T03:29:16.529Z,13.25
2023-05-02T03:30:16.464Z,13.14
2023-05-02T03:31:16.511Z,13.09
2023-05-02T03:32:16.453Z,13.15
2023-05-02T03:33:16.634Z,13.10
2023-05-02T03:34:16.438Z,13.08
2023-05-02T03:35:16.504Z,13.13
2023-05-02T03:36:16.415Z,13.28
2023-05-02T03:37:16.446Z,13.30
2023-05-02T03:38:16.405Z,13.39
2023-05-02T03:39:16.452Z,13.51
2023-05-02T03:40:16.389Z,13.55
2023-05-02T03:41:16.358Z,13.36
2023-05-02T03:42:16.383Z,13.40
2023-05-02T03:43:16.341Z,13.50
2023-05-02T03:44:16.378Z,13.47
2023-05-02T03:45:16.356Z,13.48
2023-05-02T03:46:16.334Z,13.41
2023-05-02T03:47:16.364Z,13.42
2023-05-02T03:48:16.338Z,13.43
2023-05-02T03:49:16.379Z,13.44
2023-05-02T03:50:16.357Z,13.56
2023-05-02T03:51:16.295Z,13.54
2023-05-02T03:52:16.329Z,13.48
2023-05-02T03:53:16.304Z,13.43
2023-05-02T03:54:16.424Z,13.27
2023-05-02T03:55:16.429Z,13.36
2023-05-02T03:56:16.272Z,13.33
2023-05-02T03:57:16.290Z,13.22
2023-05-02T03:58:16.240Z,13.29
2023-05-02T03:59:16.293Z,13.34
2023-05-02T04:00:16.267Z,13.50
2023-05-02T04:01:16.282Z,13.60
2023-05-02T04:02:16.309Z,13.72
2023-05-02T04:03:16.314Z,13.82
2023-05-02T04:04:16.351Z,13.89
2023-05-02T04:05:16.330Z,13.99
2023-05-02T04:06:16.414Z,14.12
2023-05-02T04:07:16.426Z,14.20
2023-05-02T04:08:16.477Z,14.27
2023-05-02T04:09:16.553Z,14.33
2023-05-02T04:10:16.577Z,14.39
2023-05-02T04:11:16.704Z,14.46
2023-05-02T04:12:16.670Z,14.50
2023-05-02T04:13:16.746Z,14.51
2023-05-02T04:14:16.762Z,14.59
2023-05-02T04:15:16.887Z,14.64
2023-05-02T04:16:16.901Z,14.34
2023-05-02T04:17:17.078Z,14.04
2023-05-02T04:18:17.014Z,13.92
2023-05-02T04:19:17.045Z,13.70
2023-05-02T04:20:17.072Z,13.54
2023-05-02T04:21:17.119Z,13.66
2023-05-02T04:22:17.153Z,13.84
2023-05-02T04:23:17.207Z,14.01
2023-05-02T04:24:17.288Z,14.15
2023-05-02T04:25:17.244Z,14.05
2023-05-02T04:26:17.336Z,14.14
2023-05-02T04:27:17.322Z,14.23
2023-05-02T04:28:17.349Z,14.34
2023-05-02T04:29:17.387Z,14.40
2023-05-02T04:30:17.414Z,14.40
2023-05-02T04:31:17.504Z,14.31
2023-05-02T04:32:17.521Z,14.38
2023-05-02T04:33:17.584Z,14.48
2023-05-02T04:34:17.591Z,14.56
2023-05-02T04:35:17.724Z,14.65
2023-05-02T04:36:17.729Z,14.67
2023-05-02T04:37:17.747Z,14.48
2023-05-02T04:38:17.849Z,14.18
2023-05-02T04:39:17.848Z,14.07
2023-05-02T04:40:17.860Z,14.12
2023-05-02T04:41:17.923Z,14.03
2023-05-02T04:42:17.960Z,14.07
2023-05-02T04:43:17.992Z,14.19
2023-05-02T04:44:18.018Z,14.27
2023-05-02T04:45:18.000Z,14.26
2023-05-02T04:46:18.082Z,14.25
2023-05-02T04:47:18.073Z,14.07
2023-05-02T04:48:18.081Z,13.81
2023-05-02T04:49:18.218Z,13.61
2023-05-02T04:50:18.247Z,13.43
2023-05-02T04:51:18.205Z,13.27
2023-05-02T04:52:18.311Z,13.12
2023-05-02T04:53:18.364Z,13.07
2023-05-02T04:54:18.525Z,13.21
2023-05-02T04:55:18.472Z,13.45
2023-05-02T04:56:18.524Z,13.60
2023-05-02T04:57:19.024Z,13.81
2023-05-02T04:58:18.601Z,14.03
2023-05-02T04:59:18.655Z,14.22
2023-05-02T05:01:45.816Z,14.38
2023-05-02T05:02:38.133Z,14.49
2023-05-02T05:03:38.289Z,14.53
2023-05-02T05:04:38.108Z,14.52
2023-05-02T05:05:38.145Z,14.49
2023-05-02T05:06:38.260Z,14.52
2023-05-02T05:07:38.050Z,14.60
2023-05-02T05:08:38.065Z,14.59
2023-05-02T05:09:38.075Z,14.55
2023-05-02T05:10:38.048Z,14.64
2023-05-02T05:11:38.033Z,14.69
2023-05-02T05:12:38.031Z,14.71
2023-05-02T05:13:38.014Z,14.79
2023-05-02T05:14:38.081Z,14.82
2023-05-02T05:15:38.049Z,14.73
2023-05-02T05:16:38.078Z,14.74
2023-05-02T05:17:38.043Z,14.80
2023-05-02T05:18:37.979Z,14.87
2023-05-02T05:19:38.087Z,14.88
2023-05-02T05:20:38.058Z,14.74
2023-05-02T05:21:38.180Z,14.72
2023-05-02T05:22:38.165Z,14.85
2023-05-02T05:23:38.661Z,14.92
2023-05-02T05:24:38.310Z,14.96
2023-05-02T05:25:38.364Z,15.01
2023-05-02T05:26:38.378Z,15.03
2023-05-02T05:27:38.446Z,15.04
2023-05-02T05:28:38.481Z,14.99
2023-05-02T05:29:38.583Z,14.92
2023-05-02T05:30:38.619Z,14.91
2023-05-02T05:31:38.706Z,14.93
2023-05-02T05:32:38.729Z,14.97
2023-05-02T05:33:38.815Z,15.03
2023-05-02T05:34:38.864Z,14.97
2023-05-02T05:35:39.555Z,15.00
2023-05-02T05:36:39.407Z,15.09
2023-05-02T05:37:38.991Z,15.05
2023-05-02T05:38:39.114Z,14.77
2023-05-02T05:39:39.357Z,14.39
2023-05-02T05:40:39.110Z,14.28
2023-05-02T05:41:39.189Z,14.43
2023-05-02T05:42:39.288Z,14.60
2023-05-02T05:43:39.264Z,14.54
2023-05-02T05:44:39.367Z,14.59
2023-05-02T05:45:39.335Z,14.72
2023-05-02T05:47:59.131Z,14.37
2023-05-02T05:48:58.995Z,14.36
2023-05-02T05:49:59.097Z,14.49
2023-05-02T05:50:58.929Z,14.65
2023-05-02T05:51:58.941Z,14.78
2023-05-02T05:52:58.937Z,14.87
2023-05-02T05:53:58.963Z,14.98
2023-05-02T05:54:58.863Z,14.89
2023-05-02T05:56:01.520Z,14.95
2023-05-02T05:56:58.889Z,14.92
2023-05-02T05:57:58.889Z,14.77
2023-05-02T05:58:58.935Z,14.56
2023-05-02T05:59:59.086Z,14.54
2023-05-02T06:00:58.901Z,14.69
2023-05-02T06:01:58.813Z,14.59
2023-05-02T06:02:59.057Z,14.59
2023-05-02T06:03:59.622Z,14.71
2023-05-02T06:04:58.941Z,14.84
2023-05-02T06:05:58.947Z,14.86
2023-05-02T06:06:58.875Z,14.96
2023-05-02T06:07:58.855Z,15.00
2023-05-02T06:08:58.841Z,15.03
2023-05-02T06:09:58.985Z,15.09
2023-05-02T06:10:58.782Z,15.08
2023-05-02T06:11:58.868Z,15.08
2023-05-02T06:12:58.835Z,14.81
2023-05-02T06:13:58.769Z,14.77
2023-05-02T06:14:59.092Z,14.68
2023-05-02T06:15:58.823Z,14.72
2023-05-02T06:16:58.907Z,14.80
2023-05-02T06:17:59.782Z,14.86
2023-05-02T06:18:58.778Z,14.81
2023-05-02T06:19:59.209Z,14.84
2023-05-02T06:20:58.729Z,14.90
2023-05-02T06:21:58.732Z,14.88
2023-05-02T06:22:58.824Z,14.86
2023-05-02T06:23:58.739Z,14.90
2023-05-02T06:24:58.764Z,14.97
2023-05-02T06:25:58.757Z,14.98
2023-05-02T06:26:58.777Z,15.01
2023-05-02T06:27:58.670Z,14.77
2023-05-02T06:28:58.679Z,14.89
2023-05-02T06:29:58.977Z,15.01
2023-05-02T06:30:58.693Z,15.05
2023-05-02T06:31:58.916Z,15.03
2023-05-02T06:32:58.703Z,15.05
2023-05-02T06:33:58.670Z,15.10
2023-05-02T06:34:58.714Z,15.10
2023-05-02T06:35:59.969Z,15.04
2023-05-02T06:36:58.669Z,15.11
2023-05-02T06:37:58.708Z,15.17
2023-05-02T06:38:58.631Z,15.15
2023-05-02T06:39:59.173Z,15.19
2023-05-02T06:40:58.601Z,15.19
2023-05-02T06:41:58.656Z,15.13
2023-05-02T06:42:58.681Z,15.05
2023-05-02T06:43:58.563Z,15.04
2023-05-02T06:44:59.088Z,15.07
2023-05-02T06:45:58.843Z,15.01
2023-05-02T06:46:58.605Z,14.95
2023-05-02T06:47:58.667Z,14.79
2023-05-02T06:48:58.599Z,14.86
2023-05-02T06:49:58.997Z,14.94
2023-05-02T06:50:59.543Z,14.94
2023-05-02T06:51:59.494Z,14.88
2023-05-02T06:52:58.532Z,14.94
2023-05-02T06:53:59.566Z,14.98
2023-05-02T06:54:59.221Z,14.98
2023-05-02T06:55:58.576Z,14.95
2023-05-02T06:56:58.522Z,14.98
2023-05-02T06:57:58.504Z,14.97
2023-05-02T06:58:59.093Z,14.73
2023-05-02T06:59:58.766Z,14.79
2023-05-02T07:00:58.566Z,14.53
2023-05-02T07:01:58.467Z,14.47
2023-05-02T07:02:58.535Z,14.54
2023-05-02T07:03:58.565Z,14.61
2023-05-02T07:04:58.603Z,14.76
2023-05-02T07:05:58.745Z,14.81
2023-05-02T07:06:58.624Z,14.88
2023-05-02T07:07:58.742Z,14.86
2023-05-02T07:08:58.728Z,14.89
2023-05-02T07:09:59.234Z,14.93
2023-05-02T07:10:58.841Z,14.79
2023-05-02T07:11:58.847Z,14.71
2023-05-02T07:12:58.869Z,14.75
2023-05-02T07:13:58.913Z,14.66
2023-05-02T07:14:59.179Z,14.72
2023-05-02T07:15:59.113Z,14.85
2023-05-02T07:16:59.277Z,15.01
2023-05-02T07:17:59.260Z,15.10
2023-05-02T07:18:59.213Z,15.17
2023-05-02T07:19:59.613Z,15.14
2023-05-02T07:20:59.218Z,15.18
2023-05-02T07:21:59.261Z,15.22
2023-05-02T07:22:59.354Z,15.15
2023-05-02T07:24:01.100Z,15.05
2023-05-02T07:24:59.514Z,14.83
2023-05-02T07:25:59.261Z,14.85
2023-05-02T07:26:59.312Z,14.85
2023-05-02T07:27:59.377Z,14.91
2023-05-02T07:28:59.486Z,14.88
2023-05-02T07:29:59.864Z,14.63
2023-05-02T07:31:00.151Z,14.53
2023-05-02T07:31:59.920Z,14.57
2023-05-02T07:32:59.654Z,14.54
2023-05-02T07:33:59.623Z,14.76
2023-05-02T07:34:59.752Z,14.87
2023-05-02T07:36:00.059Z,14.99
2023-05-02T07:36:59.809Z,14.82
2023-05-02T07:37:59.880Z,14.80
2023-05-02T07:38:59.851Z,14.70
2023-05-02T07:40:00.261Z,14.84
2023-05-02T07:41:00.105Z,14.94
2023-05-02T07:42:00.155Z,14.88
2023-05-02T07:43:00.007Z,14.86
2023-05-02T07:44:00.027Z,14.80
2023-05-02T07:45:00.181Z,14.96
2023-05-02T07:46:00.213Z,14.92
2023-05-02T07:47:00.127Z,14.95
2023-05-02T07:48:00.317Z,14.86
2023-05-02T07:49:00.267Z,15.01
2023-05-02T07:50:00.734Z,15.02
2023-05-02T07:51:00.527Z,14.85
2023-05-02T07:52:00.255Z,14.74
2023-05-02T07:53:00.281Z,14.59
2023-05-02T07:54:00.370Z,14.74
2023-05-02T07:55:00.376Z,14.88
2023-05-02T07:56:00.388Z,14.86
2023-05-02T07:57:00.404Z,14.89
2023-05-02T07:58:00.549Z,14.96
2023-05-02T07:59:00.438Z,15.16
2023-05-02T08:00:00.944Z,15.20
2023-05-02T08:01:00.545Z,15.37
2023-05-02T08:02:00.550Z,15.45
2023-05-02T08:03:00.647Z,15.51
2023-05-02T08:04:00.806Z,15.18
2023-05-02T08:05:00.683Z,15.08
2023-05-02T08:06:01.136Z,15.20
2023-05-02T08:07:00.701Z,15.20
2023-05-02T08:08:00.780Z,15.28
2023-05-02T08:09:00.803Z,14.96
2023-05-02T08:10:01.219Z,14.96
2023-05-02T08:11:01.624Z,15.15
2023-05-02T08:12:00.896Z,15.03
2023-05-02T08:13:00.951Z,15.21
2023-05-02T08:14:00.938Z,15.25
2023-05-02T08:15:01.190Z,15.03
2023-05-02T08:16:01.611Z,14.83
2023-05-02T08:17:01.042Z,14.73
2023-05-02T08:18:01.219Z,14.75
2023-05-02T08:19:01.265Z,14.79
2023-05-02T08:20:01.426Z,14.82
2023-05-02T08:21:01.632Z,14.63
2023-05-02T08:22:01.167Z,14.80
2023-05-02T08:23:01.211Z,14.99
2023-05-02T08:24:01.239Z,14.94
2023-05-02T08:25:01.220Z,15.15
2023-05-02T08:26:01.239Z,15.36
2023-05-02T08:27:01.244Z,15.45
2023-05-02T08:28:01.245Z,15.57
2023-05-02T08:29:01.263Z,15.66
2023-05-02T08:30:01.618Z,15.74
2023-05-02T08:31:01.307Z,15.73
2023-05-02T08:32:01.625Z,15.81
2023-05-02T08:33:01.494Z,15.80
2023-05-02T08:34:01.462Z,15.71
2023-05-02T08:35:01.524Z,15.63
2023-05-02T08:36:02.131Z,15.51
2023-05-02T08:37:01.613Z,15.45
2023-05-02T08:38:01.619Z,15.60
2023-05-02T08:39:01.618Z,15.78
2023-05-02T08:40:01.993Z,15.95
2023-05-02T08:41:02.758Z,16.10
2023-05-02T08:42:01.732Z,16.02
2023-05-02T08:43:01.736Z,15.89
2023-05-02T08:44:01.881Z,15.78
2023-05-02T08:45:01.879Z,15.78
2023-05-02T08:46:02.055Z,15.88
2023-05-02T08:47:02.278Z,16.03
2023-05-02T08:48:02.039Z,16.14
2023-05-02T08:49:02.095Z,16.28
2023-05-02T08:50:02.588Z,16.51
2023-05-02T08:51:02.539Z,16.71
2023-05-02T08:52:02.140Z,16.64
2023-05-02T08:53:02.230Z,16.71
2023-05-02T08:54:02.182Z,16.63
2023-05-02T08:55:02.705Z,16.67
2023-05-02T08:56:02.550Z,16.76
2023-05-02T08:57:02.262Z,16.74
2023-05-02T08:58:02.374Z,16.48
2023-05-02T08:59:02.358Z,16.44
2023-05-02T09:00:02.983Z,16.34
2023-05-02T09:01:02.377Z,16.20
2023-05-02T09:02:02.637Z,16.37
2023-05-02T09:03:02.546Z,16.54
2023-05-02T09:04:02.708Z,16.59
2023-05-02T09:05:03.043Z,16.70
2023-05-02T09:06:02.601Z,16.78
2023-05-02T09:07:02.739Z,16.78
2023-05-02T09:08:02.688Z,16.70
2023-05-02T09:09:02.646Z,16.77
2023-05-02T09:10:02.790Z,16.79
2023-05-02T09:11:02.816Z,16.79
2023-05-02T09:12:02.760Z,16.82
2023-05-02T09:13:02.689Z,16.90
2023-05-02T09:14:02.785Z,16.87
2023-05-02T09:15:02.801Z,16.63
2023-05-02T09:16:03.182Z,16.37
2023-05-02T09:17:02.859Z,16.19
2023-05-02T09:18:02.846Z,16.39
2023-05-02T09:19:02.842Z,16.60
2023-05-02T09:20:02.941Z,16.81
2023-05-02T09:21:03.113Z,16.92
2023-05-02T09:22:02.846Z,16.91
2023-05-02T09:23:02.954Z,16.97
2023-05-02T09:24:03.968Z,16.97
2023-05-02T09:25:03.058Z,17.05
2023-05-02T09:26:03.592Z,16.95
2023-05-02T09:27:03.395Z,17.08
2023-05-02T09:28:03.180Z,17.22
2023-05-02T09:29:03.264Z,17.27
2023-05-02T09:30:03.311Z,17.10
2023-05-02T09:31:04.068Z,17.16
2023-05-02T09:32:03.577Z,17.29
2023-05-02T09:33:03.475Z,17.41
2023-05-02T09:34:03.474Z,17.45
2023-05-02T09:35:03.537Z,17.54
2023-05-02T09:36:03.641Z,17.65
2023-05-02T09:37:03.674Z,17.78
2023-05-02T09:38:03.805Z,17.85
2023-05-02T09:39:03.724Z,17.86
2023-05-02T09:40:03.787Z,17.88
2023-05-02T09:41:04.096Z,17.91
2023-05-02T09:42:04.079Z,17.98
2023-05-02T09:43:04.093Z,18.00
2023-05-02T09:44:03.951Z,18.00
2023-05-02T09:45:04.046Z,18.01
2023-05-02T09:46:04.196Z,18.00
2023-05-02T09:47:06.182Z,18.06
2023-05-02T09:48:04.212Z,18.11
2023-05-02T09:49:04.141Z,18.05
2023-05-02T09:50:05.092Z,18.03
2023-05-02T09:51:04.551Z,17.97
2023-05-02T09:52:04.273Z,17.83
2023-05-02T09:53:04.268Z,17.94
2023-05-02T09:54:04.309Z,17.96
2023-05-02T09:55:04.344Z,17.89
2023-05-02T09:56:04.612Z,17.65
2023-05-02T09:57:04.404Z,17.29
2023-05-02T09:58:04.532Z,16.95
2023-05-02T09:59:04.524Z,16.92
2023-05-02T10:00:04.609Z,16.83
2023-05-02T10:01:05.592Z,16.73
2023-05-02T10:02:04.691Z,16.76
2023-05-02T10:03:04.803Z,16.91
2023-05-02T10:04:04.772Z,16.87
2023-05-02T10:05:05.002Z,16.95
2023-05-02T10:06:05.142Z,16.82
2023-05-02T10:07:05.012Z,16.95
2023-05-02T10:08:05.121Z,17.15
2023-05-02T10:09:05.116Z,17.30
2023-05-02T10:10:05.208Z,17.15
2023-05-02T10:11:05.218Z,17.09
2023-05-02T10:12:05.321Z,17.12
2023-05-02T10:13:05.334Z,17.11
2023-05-02T10:14:05.946Z,17.12
2023-05-02T10:15:05.443Z,17.24
2023-05-02T10:16:06.278Z,17.17
2023-05-02T10:17:05.475Z,16.94
2023-05-02T10:18:05.623Z,16.95
2023-05-02T10:19:05.721Z,16.75
2023-05-02T10:20:05.779Z,16.75
2023-05-02T10:21:05.808Z,16.79
2023-05-02T10:22:06.543Z,16.89
2023-05-02T10:23:05.921Z,17.05
2023-05-02T10:24:05.922Z,17.24
2023-05-02T10:25:05.952Z,17.41
2023-05-02T10:26:05.930Z,17.53
2023-05-02T10:27:06.187Z,17.73
2023-05-02T10:28:06.048Z,17.81
2023-05-02T10:29:06.002Z,17.76
2023-05-02T10:30:06.176Z,17.69
2023-05-02T10:31:06.208Z,17.70
2023-05-02T10:32:06.802Z,17.78
2023-05-02T10:33:06.209Z,17.94
2023-05-02T10:34:06.205Z,18.08
2023-05-02T10:35:06.214Z,18.21
2023-05-02T10:36:06.623Z,18.28
2023-05-02T10:37:07.037Z,18.43
2023-05-02T10:38:06.424Z,18.33
2023-05-02T10:39:07.148Z,18.38
2023-05-02T10:40:07.063Z,18.40
2023-05-02T10:41:06.489Z,18.47
2023-05-02T10:42:07.163Z,18.59
2023-05-02T10:43:06.663Z,18.42
2023-05-02T10:44:06.618Z,18.54
2023-05-02T10:45:06.694Z,18.55
2023-05-02T10:46:06.823Z,18.60
2023-05-02T10:47:07.697Z,18.43
2023-05-02T10:48:06.932Z,18.58
2023-05-02T10:49:06.819Z,18.76
2023-05-02T10:50:07.444Z,18.86
2023-05-02T10:51:06.922Z,18.92
2023-05-02T10:52:07.143Z,19.00
2023-05-02T10:53:06.939Z,19.10
2023-05-02T10:54:06.962Z,18.82
2023-05-02T10:55:06.964Z,18.84
2023-05-02T10:56:07.085Z,18.86
2023-05-02T10:57:07.062Z,18.94
2023-05-02T10:58:07.062Z,18.96
2023-05-02T10:59:07.092Z,18.94
2023-05-02T11:00:08.114Z,18.69
2023-05-02T11:01:08.294Z,18.61
2023-05-02T11:02:07.699Z,18.71
2023-05-02T11:03:07.271Z,18.47
2023-05-02T11:04:07.223Z,18.18
2023-05-02T11:05:07.358Z,18.13
2023-05-02T11:06:07.346Z,17.85
2023-05-02T11:07:07.380Z,17.79
2023-05-02T11:08:07.456Z,17.95
2023-05-02T11:09:07.450Z,18.06
2023-05-02T11:10:07.470Z,18.22
2023-05-02T11:11:07.472Z,18.21
2023-05-02T11:12:08.208Z,18.37
2023-05-02T11:13:07.568Z,18.53
2023-05-02T11:14:07.581Z,18.65
2023-05-02T11:15:07.615Z,18.64
2023-05-02T11:16:07.667Z,18.68
2023-05-02T11:17:07.721Z,18.74
2023-05-02T11:18:07.932Z,18.79
2023-05-02T11:19:07.720Z,18.83
2023-05-02T11:20:07.843Z,18.78
2023-05-02T11:21:07.864Z,18.79
2023-05-02T11:22:07.937Z,18.83
2023-05-02T11:23:07.972Z,18.75
2023-05-02T11:24:07.943Z,18.76
2023-05-02T11:25:08.086Z,18.81
2023-05-02T11:26:08.097Z,18.81
2023-05-02T11:27:08.055Z,18.77
2023-05-02T11:28:08.101Z,18.73
2023-05-02T11:29:08.112Z,18.59
2023-05-02T11:30:09.507Z,18.63
2023-05-02T11:31:08.169Z,18.68
2023-05-02T11:32:08.698Z,18.82
2023-05-02T11:33:08.283Z,18.77
2023-05-02T11:34:08.930Z,18.72
2023-05-02T11:35:09.188Z,18.72
2023-05-02T11:36:08.166Z,18.67
2023-05-02T11:37:09.435Z,18.73
2023-05-02T11:38:08.174Z,18.84
2023-05-02T11:39:08.071Z,18.94
2023-05-02T11:40:08.081Z,18.91
2023-05-02T11:41:08.072Z,19.00
2023-05-02T11:42:08.025Z,18.90
2023-05-02T11:43:08.089Z,18.90
2023-05-02T11:44:08.083Z,18.87
2023-05-02T11:45:08.060Z,18.93
2023-05-02T11:46:08.079Z,18.92
2023-05-02T11:47:08.138Z,18.99
2023-05-02T11:48:08.170Z,18.97
2023-05-02T11:49:09.325Z,18.96
2023-05-02T11:50:08.064Z,18.94
2023-05-02T11:51:08.268Z,18.96
2023-05-02T11:52:08.071Z,18.88
2023-05-02T11:53:07.956Z,18.78
2023-05-02T11:54:08.034Z,18.54
2023-05-02T11:55:09.711Z,18.24
2023-05-02T11:56:08.196Z,18.23
2023-05-02T11:57:08.110Z,18.04
2023-05-02T11:58:08.229Z,18.06
2023-05-02T11:59:08.191Z,18.26
2023-05-02T12:00:08.287Z,18.44
2023-05-02T12:01:09.536Z,18.61
2023-05-02T12:02:08.993Z,18.17
2023-05-02T12:03:08.383Z,17.95
2023-05-02T12:04:08.382Z,17.94
2023-05-02T12:05:08.372Z,18.04
2023-05-02T12:06:08.395Z,17.86
2023-05-02T12:07:10.207Z,17.68
2023-05-02T12:08:08.379Z,17.80
2023-05-02T12:09:08.390Z,17.90
2023-05-02T12:10:08.381Z,18.05
2023-05-02T12:11:08.330Z,17.95
2023-05-02T12:12:08.324Z,17.99
2023-05-02T12:13:09.435Z,18.14
2023-05-02T12:14:08.286Z,18.15
2023-05-02T12:15:08.399Z,18.22
2023-05-02T12:16:08.334Z,18.28
2023-05-02T12:17:08.335Z,18.29
2023-05-02T12:18:08.301Z,18.24
2023-05-02T12:19:08.353Z,18.26
2023-05-02T12:20:08.276Z,18.36
2023-05-02T12:21:08.255Z,18.46
2023-05-02T12:22:08.251Z,18.58
2023-05-02T12:23:08.271Z,18.57
2023-05-02T12:24:08.282Z,18.55
2023-05-02T12:25:08.286Z,18.62
2023-05-02T12:26:08.191Z,18.53
2023-05-02T12:27:08.226Z,18.54
2023-05-02T12:28:08.222Z,18.54
2023-05-02T12:29:08.214Z,18.44
2023-05-02T12:30:08.236Z,18.44
2023-05-02T12:31:08.235Z,18.44
2023-05-02T12:32:08.252Z,18.44
2023-05-02T12:33:08.284Z,18.47
2023-05-02T12:34:08.266Z,18.42
2023-05-02T12:35:08.369Z,18.46
2023-05-02T12:36:08.360Z,18.41
2023-05-02T12:37:08.464Z,18.05
2023-05-02T12:38:08.401Z,17.87
2023-05-02T12:39:08.481Z,17.98
2023-05-02T12:40:08.514Z,17.99
2023-05-02T12:41:08.573Z,18.10
2023-05-02T12:42:08.629Z,18.19
2023-05-02T12:43:08.856Z,18.00
2023-05-02T12:44:08.703Z,17.81
2023-05-02T12:45:08.740Z,18.02
2023-05-02T12:46:08.739Z,18.13
2023-05-02T12:47:08.892Z,18.16
2023-05-02T12:48:08.840Z,18.20
2023-05-02T12:49:08.843Z,18.12
2023-05-02T12:50:08.825Z,18.15
2023-05-02T12:51:08.867Z,18.33
2023-05-02T12:52:08.977Z,18.57
2023-05-02T12:53:08.959Z,18.56
2023-05-02T12:54:09.000Z,18.51
2023-05-02T12:55:08.978Z,18.44